sensor_id;sensor_type;location;lat;lon;timestamp;P1;durP1;ratioP1;P2;durP2;ratioP2
19814;SDS011;10067;53.092;8.800;2023-06-14T00:01:50;4.72;;;2.83;;
19814;SDS011;10067;53.092;8.800;2023-06-14T00:04:17;8.02;;;3.80;;
19814;SDS011;10067;53.092;8.800;2023-06-14T00:06:46;4.90;;;2.67;;
19814;SDS011;10067;53.092;8.800;2023-06-14T00:09:13;6.18;;;3.28;;
19814;SDS011;10067;53.092;8.800;2023-06-14T00:11:40;4.75;;;2.72;;
19814;SDS011;10067;53.092;8.800;2023-06-14T00:14:07;7.30;;;2.88;;
19814;SDS011;10067;53.092;8.800;2023-06-14T00:16:33;6.65;;;2.72;;
19814;SDS011;10067;53.092;8.800;2023-06-14T00:19:01;7.78;;;2.88;;
19814;SDS011;10067;53.092;8.800;2023-06-14T00:21:29;7.07;;;3.28;;
19814;SDS011;10067;53.092;8.800;2023-06-14T00:23:56;5.60;;;3.08;;
19814;SDS011;10067;53.092;8.800;2023-06-14T00:26:22;8.68;;;3.47;;
19814;SDS011;10067;53.092;8.800;2023-06-14T00:28:48;6.35;;;3.03;;
19814;SDS011;10067;53.092;8.800;2023-06-14T00:31:15;8.57;;;3.10;;
19814;SDS011;10067;53.092;8.800;2023-06-14T00:33:41;5.97;;;2.80;;
19814;SDS011;10067;53.092;8.800;2023-06-14T00:36:09;8.25;;;2.70;;
19814;SDS011;10067;53.092;8.800;2023-06-14T00:38:35;6.90;;;3.20;;
19814;SDS011;10067;53.092;8.800;2023-06-14T00:41:01;7.95;;;2.88;;
19814;SDS011;10067;53.092;8.800;2023-06-14T00:43:28;6.72;;;3.15;;
19814;SDS011;10067;53.092;8.800;2023-06-14T00:45:54;7.85;;;3.20;;
19814;SDS011;10067;53.092;8.800;2023-06-14T00:48:21;8.40;;;3.42;;
19814;SDS011;10067;53.092;8.800;2023-06-14T00:50:48;11.45;;;3.85;;
19814;SDS011;10067;53.092;8.800;2023-06-14T00:53:16;6.57;;;3.10;;
19814;SDS011;10067;53.092;8.800;2023-06-14T00:55:43;5.15;;;2.63;;
19814;SDS011;10067;53.092;8.800;2023-06-14T00:58:09;6.60;;;3.30;;
19814;SDS011;10067;53.092;8.800;2023-06-14T01:00:36;7.07;;;3.65;;
19814;SDS011;10067;53.092;8.800;2023-06-14T01:03:03;7.15;;;3.25;;
19814;SDS011;10067;53.092;8.800;2023-06-14T01:05:29;6.03;;;3.10;;
19814;SDS011;10067;53.092;8.800;2023-06-14T01:08:01;5.07;;;3.13;;
19814;SDS011;10067;53.092;8.800;2023-06-14T01:10:34;6.28;;;3.03;;
19814;SDS011;10067;53.092;8.800;2023-06-14T01:13:03;5.25;;;2.90;;
19814;SDS011;10067;53.092;8.800;2023-06-14T01:15:31;3.97;;;3.17;;
19814;SDS011;10067;53.092;8.800;2023-06-14T01:17:57;6.18;;;3.25;;
19814;SDS011;10067;53.092;8.800;2023-06-14T01:20:28;4.55;;;3.13;;
19814;SDS011;10067;53.092;8.800;2023-06-14T01:22:56;6.88;;;3.40;;
19814;SDS011;10067;53.092;8.800;2023-06-14T01:25:22;7.68;;;3.50;;
19814;SDS011;10067;53.092;8.800;2023-06-14T01:27:50;6.43;;;3.50;;
19814;SDS011;10067;53.092;8.800;2023-06-14T01:30:18;9.18;;;3.67;;
19814;SDS011;10067;53.092;8.800;2023-06-14T01:32:46;6.78;;;3.58;;
19814;SDS011;10067;53.092;8.800;2023-06-14T01:35:12;6.95;;;3.88;;
19814;SDS011;10067;53.092;8.800;2023-06-14T01:37:39;5.30;;;3.53;;
19814;SDS011;10067;53.092;8.800;2023-06-14T01:40:08;4.85;;;3.25;;
19814;SDS011;10067;53.092;8.800;2023-06-14T01:42:35;8.48;;;3.72;;
19814;SDS011;10067;53.092;8.800;2023-06-14T01:45:03;8.65;;;3.65;;
19814;SDS011;10067;53.092;8.800;2023-06-14T01:47:30;4.82;;;3.20;;
19814;SDS011;10067;53.092;8.800;2023-06-14T01:49:57;10.63;;;3.70;;
19814;SDS011;10067;53.092;8.800;2023-06-14T01:52:23;5.15;;;3.50;;
19814;SDS011;10067;53.092;8.800;2023-06-14T01:54:50;6.78;;;3.72;;
19814;SDS011;10067;53.092;8.800;2023-06-14T01:57:18;6.82;;;3.30;;
19814;SDS011;10067;53.092;8.800;2023-06-14T01:59:45;10.15;;;3.25;;
19814;SDS011;10067;53.092;8.800;2023-06-14T02:02:13;6.90;;;3.60;;
19814;SDS011;10067;53.092;8.800;2023-06-14T02:04:39;6.75;;;4.32;;
19814;SDS011;10067;53.092;8.800;2023-06-14T02:07:06;9.63;;;4.10;;
19814;SDS011;10067;53.092;8.800;2023-06-14T02:09:33;6.20;;;3.78;;
19814;SDS011;10067;53.092;8.800;2023-06-14T02:12:00;7.88;;;3.58;;
19814;SDS011;10067;53.092;8.800;2023-06-14T02:14:27;8.20;;;3.70;;
19814;SDS011;10067;53.092;8.800;2023-06-14T02:16:54;6.72;;;3.58;;
19814;SDS011;10067;53.092;8.800;2023-06-14T02:19:20;7.47;;;3.47;;
19814;SDS011;10067;53.092;8.800;2023-06-14T02:21:47;8.95;;;4.15;;
19814;SDS011;10067;53.092;8.800;2023-06-14T02:24:13;9.00;;;3.80;;
19814;SDS011;10067;53.092;8.800;2023-06-14T02:26:39;7.00;;;3.78;;
19814;SDS011;10067;53.092;8.800;2023-06-14T02:29:06;8.02;;;4.13;;
19814;SDS011;10067;53.092;8.800;2023-06-14T02:31:35;8.40;;;3.88;;
19814;SDS011;10067;53.092;8.800;2023-06-14T02:34:02;6.60;;;3.50;;
19814;SDS011;10067;53.092;8.800;2023-06-14T02:36:28;7.57;;;3.78;;
19814;SDS011;10067;53.092;8.800;2023-06-14T02:38:55;8.27;;;3.83;;
19814;SDS011;10067;53.092;8.800;2023-06-14T02:41:22;7.20;;;3.75;;
19814;SDS011;10067;53.092;8.800;2023-06-14T02:43:49;9.30;;;4.00;;
19814;SDS011;10067;53.092;8.800;2023-06-14T02:46:15;10.23;;;4.10;;
19814;SDS011;10067;53.092;8.800;2023-06-14T02:48:43;5.18;;;4.03;;
19814;SDS011;10067;53.092;8.800;2023-06-14T02:51:09;7.80;;;3.92;;
19814;SDS011;10067;53.092;8.800;2023-06-14T02:53:35;6.40;;;3.53;;
19814;SDS011;10067;53.092;8.800;2023-06-14T02:56:02;6.60;;;3.67;;
19814;SDS011;10067;53.092;8.800;2023-06-14T02:58:29;6.88;;;4.25;;
19814;SDS011;10067;53.092;8.800;2023-06-14T03:00:55;9.95;;;4.07;;
19814;SDS011;10067;53.092;8.800;2023-06-14T03:03:21;8.63;;;4.43;;
19814;SDS011;10067;53.092;8.800;2023-06-14T03:05:50;7.93;;;4.55;;
19814;SDS011;10067;53.092;8.800;2023-06-14T03:08:17;9.23;;;4.35;;
19814;SDS011;10067;53.092;8.800;2023-06-14T03:10:45;8.65;;;4.75;;
19814;SDS011;10067;53.092;8.800;2023-06-14T03:13:12;8.43;;;4.50;;
19814;SDS011;10067;53.092;8.800;2023-06-14T03:15:38;13.63;;;5.20;;
19814;SDS011;10067;53.092;8.800;2023-06-14T03:18:07;9.98;;;4.90;;
19814;SDS011;10067;53.092;8.800;2023-06-14T03:20:33;7.82;;;4.30;;
19814;SDS011;10067;53.092;8.800;2023-06-14T03:23:01;6.57;;;4.03;;
19814;SDS011;10067;53.092;8.800;2023-06-14T03:25:28;5.90;;;4.25;;
19814;SDS011;10067;53.092;8.800;2023-06-14T03:27:55;9.27;;;4.90;;
19814;SDS011;10067;53.092;8.800;2023-06-14T03:30:21;6.07;;;4.30;;
19814;SDS011;10067;53.092;8.800;2023-06-14T03:32:47;7.88;;;4.55;;
19814;SDS011;10067;53.092;8.800;2023-06-14T03:35:14;7.43;;;4.55;;
19814;SDS011;10067;53.092;8.800;2023-06-14T03:37:42;8.00;;;5.15;;
19814;SDS011;10067;53.092;8.800;2023-06-14T03:40:11;7.78;;;4.70;;
19814;SDS011;10067;53.092;8.800;2023-06-14T03:42:38;9.68;;;4.57;;
19814;SDS011;10067;53.092;8.800;2023-06-14T03:45:05;7.40;;;4.38;;
19814;SDS011;10067;53.092;8.800;2023-06-14T03:47:32;11.75;;;4.32;;
19814;SDS011;10067;53.092;8.800;2023-06-14T03:49:58;6.00;;;4.57;;
19814;SDS011;10067;53.092;8.800;2023-06-14T03:52:25;9.40;;;4.57;;
19814;SDS011;10067;53.092;8.800;2023-06-14T03:54:51;7.68;;;4.43;;
19814;SDS011;10067;53.092;8.800;2023-06-14T03:57:19;6.70;;;4.35;;
19814;SDS011;10067;53.092;8.800;2023-06-14T03:59:46;7.40;;;4.90;;
19814;SDS011;10067;53.092;8.800;2023-06-14T04:02:13;7.60;;;4.85;;
19814;SDS011;10067;53.092;8.800;2023-06-14T04:04:40;8.52;;;5.10;;
19814;SDS011;10067;53.092;8.800;2023-06-14T04:07:09;8.52;;;4.60;;
19814;SDS011;10067;53.092;8.800;2023-06-14T04:09:36;8.00;;;4.90;;
19814;SDS011;10067;53.092;8.800;2023-06-14T04:12:03;6.03;;;4.55;;
19814;SDS011;10067;53.092;8.800;2023-06-14T04:14:30;8.60;;;4.60;;
19814;SDS011;10067;53.092;8.800;2023-06-14T04:16:58;9.63;;;4.82;;
19814;SDS011;10067;53.092;8.800;2023-06-14T04:19:24;7.38;;;4.65;;
19814;SDS011;10067;53.092;8.800;2023-06-14T04:21:51;7.20;;;5.05;;
19814;SDS011;10067;53.092;8.800;2023-06-14T04:24:17;7.13;;;4.55;;
19814;SDS011;10067;53.092;8.800;2023-06-14T04:26:44;6.75;;;4.40;;
19814;SDS011;10067;53.092;8.800;2023-06-14T04:29:10;6.85;;;4.75;;
19814;SDS011;10067;53.092;8.800;2023-06-14T04:31:40;5.68;;;4.40;;
19814;SDS011;10067;53.092;8.800;2023-06-14T04:34:07;8.10;;;4.93;;
19814;SDS011;10067;53.092;8.800;2023-06-14T04:36:33;10.20;;;4.97;;
19814;SDS011;10067;53.092;8.800;2023-06-14T04:39:02;6.93;;;5.03;;
19814;SDS011;10067;53.092;8.800;2023-06-14T04:41:29;6.22;;;4.38;;
19814;SDS011;10067;53.092;8.800;2023-06-14T04:43:56;8.10;;;4.65;;
19814;SDS011;10067;53.092;8.800;2023-06-14T04:46:26;9.00;;;4.82;;
19814;SDS011;10067;53.092;8.800;2023-06-14T04:48:54;7.05;;;4.43;;
19814;SDS011;10067;53.092;8.800;2023-06-14T04:51:21;8.32;;;4.82;;
19814;SDS011;10067;53.092;8.800;2023-06-14T04:53:54;9.77;;;5.05;;
19814;SDS011;10067;53.092;8.800;2023-06-14T04:56:22;7.13;;;4.30;;
19814;SDS011;10067;53.092;8.800;2023-06-14T04:58:48;8.48;;;4.60;;
19814;SDS011;10067;53.092;8.800;2023-06-14T05:01:14;7.95;;;4.53;;
19814;SDS011;10067;53.092;8.800;2023-06-14T05:03:41;8.68;;;4.88;;
19814;SDS011;10067;53.092;8.800;2023-06-14T05:06:11;10.02;;;4.43;;
19814;SDS011;10067;53.092;8.800;2023-06-14T05:08:38;8.18;;;4.15;;
19814;SDS011;10067;53.092;8.800;2023-06-14T05:11:04;10.55;;;5.30;;
19814;SDS011;10067;53.092;8.800;2023-06-14T05:13:30;6.95;;;4.55;;
19814;SDS011;10067;53.092;8.800;2023-06-14T05:15:57;8.57;;;4.70;;
19814;SDS011;10067;53.092;8.800;2023-06-14T05:18:24;9.15;;;4.40;;
19814;SDS011;10067;53.092;8.800;2023-06-14T05:20:51;11.32;;;4.82;;
19814;SDS011;10067;53.092;8.800;2023-06-14T05:23:18;7.43;;;5.40;;
19814;SDS011;10067;53.092;8.800;2023-06-14T05:25:45;11.05;;;5.70;;
19814;SDS011;10067;53.092;8.800;2023-06-14T05:28:11;10.40;;;4.82;;
19814;SDS011;10067;53.092;8.800;2023-06-14T05:30:38;7.90;;;4.88;;
19814;SDS011;10067;53.092;8.800;2023-06-14T05:33:04;11.50;;;5.45;;
19814;SDS011;10067;53.092;8.800;2023-06-14T05:35:31;11.18;;;7.15;;
19814;SDS011;10067;53.092;8.800;2023-06-14T05:37:57;8.95;;;4.45;;
19814;SDS011;10067;53.092;8.800;2023-06-14T05:40:25;7.80;;;4.53;;
19814;SDS011;10067;53.092;8.800;2023-06-14T05:42:51;9.68;;;5.93;;
19814;SDS011;10067;53.092;8.800;2023-06-14T05:45:18;7.97;;;3.90;;
19814;SDS011;10067;53.092;8.800;2023-06-14T05:47:44;9.13;;;4.68;;
19814;SDS011;10067;53.092;8.800;2023-06-14T05:50:10;7.43;;;4.10;;
19814;SDS011;10067;53.092;8.800;2023-06-14T05:52:37;11.15;;;4.43;;
19814;SDS011;10067;53.092;8.800;2023-06-14T05:55:03;11.70;;;4.47;;
19814;SDS011;10067;53.092;8.800;2023-06-14T05:57:31;8.13;;;4.35;;
19814;SDS011;10067;53.092;8.800;2023-06-14T05:59:57;7.05;;;3.70;;
19814;SDS011;10067;53.092;8.800;2023-06-14T06:02:24;9.93;;;4.10;;
19814;SDS011;10067;53.092;8.800;2023-06-14T06:04:50;9.25;;;4.85;;
19814;SDS011;10067;53.092;8.800;2023-06-14T06:07:17;6.53;;;3.75;;
19814;SDS011;10067;53.092;8.800;2023-06-14T06:09:43;6.85;;;3.95;;
19814;SDS011;10067;53.092;8.800;2023-06-14T06:12:09;6.40;;;3.65;;
19814;SDS011;10067;53.092;8.800;2023-06-14T06:14:37;7.75;;;4.43;;
19814;SDS011;10067;53.092;8.800;2023-06-14T06:17:04;16.52;;;3.70;;
19814;SDS011;10067;53.092;8.800;2023-06-14T06:19:30;6.95;;;4.18;;
19814;SDS011;10067;53.092;8.800;2023-06-14T06:21:57;10.35;;;3.92;;
19814;SDS011;10067;53.092;8.800;2023-06-14T06:24:24;7.40;;;3.92;;
19814;SDS011;10067;53.092;8.800;2023-06-14T06:26:50;10.25;;;3.47;;
19814;SDS011;10067;53.092;8.800;2023-06-14T06:29:16;5.57;;;3.70;;
19814;SDS011;10067;53.092;8.800;2023-06-14T06:31:44;6.28;;;3.38;;
19814;SDS011;10067;53.092;8.800;2023-06-14T06:34:11;7.00;;;3.70;;
19814;SDS011;10067;53.092;8.800;2023-06-14T06:36:38;6.38;;;3.28;;
19814;SDS011;10067;53.092;8.800;2023-06-14T06:39:04;5.90;;;3.45;;
19814;SDS011;10067;53.092;8.800;2023-06-14T06:41:35;7.13;;;3.78;;
19814;SDS011;10067;53.092;8.800;2023-06-14T06:44:02;7.85;;;3.70;;
19814;SDS011;10067;53.092;8.800;2023-06-14T06:46:29;4.90;;;3.40;;
19814;SDS011;10067;53.092;8.800;2023-06-14T06:48:56;4.97;;;3.92;;
19814;SDS011;10067;53.092;8.800;2023-06-14T06:51:23;7.82;;;3.60;;
19814;SDS011;10067;53.092;8.800;2023-06-14T06:53:51;7.22;;;3.58;;
19814;SDS011;10067;53.092;8.800;2023-06-14T06:56:18;5.57;;;3.40;;
19814;SDS011;10067;53.092;8.800;2023-06-14T06:58:44;7.05;;;3.42;;
19814;SDS011;10067;53.092;8.800;2023-06-14T07:01:11;6.10;;;3.03;;
19814;SDS011;10067;53.092;8.800;2023-06-14T07:03:38;3.17;;;2.50;;
19814;SDS011;10067;53.092;8.800;2023-06-14T07:06:06;4.45;;;2.90;;
19814;SDS011;10067;53.092;8.800;2023-06-14T07:08:32;4.80;;;2.70;;
19814;SDS011;10067;53.092;8.800;2023-06-14T07:10:59;5.13;;;3.42;;
19814;SDS011;10067;53.092;8.800;2023-06-14T07:13:25;5.15;;;3.38;;
19814;SDS011;10067;53.092;8.800;2023-06-14T07:15:54;4.53;;;3.03;;
19814;SDS011;10067;53.092;8.800;2023-06-14T07:18:20;7.93;;;2.60;;
19814;SDS011;10067;53.092;8.800;2023-06-14T07:20:47;4.10;;;2.78;;
19814;SDS011;10067;53.092;8.800;2023-06-14T07:23:15;7.55;;;3.03;;
19814;SDS011;10067;53.092;8.800;2023-06-14T07:25:41;5.00;;;2.97;;
19814;SDS011;10067;53.092;8.800;2023-06-14T07:28:07;4.18;;;2.75;;
19814;SDS011;10067;53.092;8.800;2023-06-14T07:30:34;5.43;;;2.97;;
19814;SDS011;10067;53.092;8.800;2023-06-14T07:33:01;6.38;;;2.60;;
19814;SDS011;10067;53.092;8.800;2023-06-14T07:35:27;8.18;;;3.20;;
19814;SDS011;10067;53.092;8.800;2023-06-14T07:37:53;5.18;;;2.85;;
19814;SDS011;10067;53.092;8.800;2023-06-14T07:40:21;6.30;;;2.53;;
19814;SDS011;10067;53.092;8.800;2023-06-14T07:42:48;5.30;;;2.67;;
19814;SDS011;10067;53.092;8.800;2023-06-14T07:45:15;7.32;;;3.15;;
19814;SDS011;10067;53.092;8.800;2023-06-14T07:47:42;3.38;;;2.38;;
19814;SDS011;10067;53.092;8.800;2023-06-14T07:50:09;4.18;;;2.53;;
19814;SDS011;10067;53.092;8.800;2023-06-14T07:52:36;4.82;;;2.28;;
19814;SDS011;10067;53.092;8.800;2023-06-14T07:55:03;4.25;;;2.42;;
19814;SDS011;10067;53.092;8.800;2023-06-14T07:57:31;5.18;;;2.88;;
19814;SDS011;10067;53.092;8.800;2023-06-14T07:59:57;4.05;;;2.30;;
19814;SDS011;10067;53.092;8.800;2023-06-14T08:02:24;4.28;;;2.45;;
19814;SDS011;10067;53.092;8.800;2023-06-14T08:04:50;4.57;;;2.20;;
19814;SDS011;10067;53.092;8.800;2023-06-14T08:07:16;6.15;;;2.45;;
19814;SDS011;10067;53.092;8.800;2023-06-14T08:09:42;3.40;;;2.40;;
19814;SDS011;10067;53.092;8.800;2023-06-14T08:12:09;2.80;;;2.42;;
19814;SDS011;10067;53.092;8.800;2023-06-14T08:14:37;6.28;;;2.90;;
19814;SDS011;10067;53.092;8.800;2023-06-14T08:17:03;4.88;;;2.85;;
19814;SDS011;10067;53.092;8.800;2023-06-14T08:19:30;5.22;;;2.58;;
19814;SDS011;10067;53.092;8.800;2023-06-14T08:21:56;3.05;;;2.20;;
19814;SDS011;10067;53.092;8.800;2023-06-14T08:24:23;3.17;;;2.67;;
19814;SDS011;10067;53.092;8.800;2023-06-14T08:26:50;4.05;;;2.75;;
19814;SDS011;10067;53.092;8.800;2023-06-14T08:29:16;3.00;;;2.35;;
19814;SDS011;10067;53.092;8.800;2023-06-14T08:31:44;4.03;;;2.53;;
19814;SDS011;10067;53.092;8.800;2023-06-14T08:34:11;5.80;;;2.47;;
19814;SDS011;10067;53.092;8.800;2023-06-14T08:36:37;6.50;;;2.40;;
19814;SDS011;10067;53.092;8.800;2023-06-14T08:39:04;5.47;;;3.22;;
19814;SDS011;10067;53.092;8.800;2023-06-14T08:41:30;5.93;;;2.40;;
19814;SDS011;10067;53.092;8.800;2023-06-14T08:43:57;7.20;;;2.63;;
19814;SDS011;10067;53.092;8.800;2023-06-14T08:46:24;4.15;;;2.90;;
19814;SDS011;10067;53.092;8.800;2023-06-14T08:48:54;5.50;;;2.85;;
19814;SDS011;10067;53.092;8.800;2023-06-14T08:51:21;4.32;;;2.58;;
19814;SDS011;10067;53.092;8.800;2023-06-14T08:53:49;4.75;;;2.67;;
19814;SDS011;10067;53.092;8.800;2023-06-14T08:56:17;6.28;;;2.70;;
19814;SDS011;10067;53.092;8.800;2023-06-14T08:58:45;5.72;;;3.10;;
19814;SDS011;10067;53.092;8.800;2023-06-14T09:01:13;3.70;;;2.83;;
19814;SDS011;10067;53.092;8.800;2023-06-14T09:03:41;4.75;;;2.50;;
19814;SDS011;10067;53.092;8.800;2023-06-14T09:06:09;3.35;;;2.67;;
19814;SDS011;10067;53.092;8.800;2023-06-14T09:08:39;4.60;;;2.67;;
19814;SDS011;10067;53.092;8.800;2023-06-14T09:11:05;4.07;;;2.60;;
19814;SDS011;10067;53.092;8.800;2023-06-14T09:13:32;4.75;;;2.75;;
19814;SDS011;10067;53.092;8.800;2023-06-14T09:15:58;4.60;;;2.80;;
19814;SDS011;10067;53.092;8.800;2023-06-14T09:18:29;5.18;;;2.55;;
19814;SDS011;10067;53.092;8.800;2023-06-14T09:20:59;4.13;;;2.40;;
19814;SDS011;10067;53.092;8.800;2023-06-14T09:23:27;5.35;;;2.60;;
19814;SDS011;10067;53.092;8.800;2023-06-14T09:25:53;4.53;;;2.85;;
19814;SDS011;10067;53.092;8.800;2023-06-14T09:28:20;5.50;;;2.42;;
19814;SDS011;10067;53.092;8.800;2023-06-14T09:30:48;3.20;;;2.22;;
19814;SDS011;10067;53.092;8.800;2023-06-14T09:33:16;4.43;;;2.50;;
19814;SDS011;10067;53.092;8.800;2023-06-14T09:35:44;3.83;;;2.38;;
19814;SDS011;10067;53.092;8.800;2023-06-14T09:38:11;3.35;;;2.80;;
19814;SDS011;10067;53.092;8.800;2023-06-14T09:40:39;4.60;;;2.80;;
19814;SDS011;10067;53.092;8.800;2023-06-14T09:43:05;5.07;;;2.63;;
19814;SDS011;10067;53.092;8.800;2023-06-14T09:45:33;4.20;;;2.88;;
19814;SDS011;10067;53.092;8.800;2023-06-14T09:47:59;7.43;;;2.63;;
19814;SDS011;10067;53.092;8.800;2023-06-14T09:50:26;6.35;;;3.33;;
19814;SDS011;10067;53.092;8.800;2023-06-14T09:52:52;6.57;;;2.70;;
19814;SDS011;10067;53.092;8.800;2023-06-14T09:55:21;3.78;;;2.60;;
19814;SDS011;10067;53.092;8.800;2023-06-14T09:57:49;6.53;;;3.10;;
19814;SDS011;10067;53.092;8.800;2023-06-14T10:00:16;3.35;;;2.50;;
19814;SDS011;10067;53.092;8.800;2023-06-14T10:02:43;5.22;;;2.55;;
19814;SDS011;10067;53.092;8.800;2023-06-14T10:05:12;5.00;;;2.42;;
19814;SDS011;10067;53.092;8.800;2023-06-14T10:07:42;5.18;;;2.88;;
19814;SDS011;10067;53.092;8.800;2023-06-14T10:10:09;3.85;;;2.80;;
19814;SDS011;10067;53.092;8.800;2023-06-14T10:12:35;7.20;;;2.95;;
19814;SDS011;10067;53.092;8.800;2023-06-14T10:15:03;3.75;;;2.35;;
19814;SDS011;10067;53.092;8.800;2023-06-14T10:17:33;8.13;;;2.88;;
19814;SDS011;10067;53.092;8.800;2023-06-14T10:20:10;3.67;;;2.83;;
19814;SDS011;10067;53.092;8.800;2023-06-14T10:22:38;3.97;;;2.70;;
19814;SDS011;10067;53.092;8.800;2023-06-14T10:25:07;2.63;;;2.05;;
19814;SDS011;10067;53.092;8.800;2023-06-14T10:27:37;7.03;;;2.65;;
19814;SDS011;10067;53.092;8.800;2023-06-14T10:30:06;5.65;;;2.83;;
19814;SDS011;10067;53.092;8.800;2023-06-14T10:32:33;4.35;;;2.55;;
19814;SDS011;10067;53.092;8.800;2023-06-14T10:35:00;8.18;;;2.75;;
19814;SDS011;10067;53.092;8.800;2023-06-14T10:37:26;4.70;;;2.80;;
19814;SDS011;10067;53.092;8.800;2023-06-14T10:39:53;3.78;;;2.20;;
19814;SDS011;10067;53.092;8.800;2023-06-14T10:42:19;5.50;;;2.60;;
19814;SDS011;10067;53.092;8.800;2023-06-14T10:44:49;3.08;;;2.63;;
19814;SDS011;10067;53.092;8.800;2023-06-14T10:47:21;4.68;;;2.70;;
19814;SDS011;10067;53.092;8.800;2023-06-14T10:49:50;7.43;;;2.83;;
19814;SDS011;10067;53.092;8.800;2023-06-14T10:52:16;3.85;;;2.67;;
19814;SDS011;10067;53.092;8.800;2023-06-14T10:54:58;5.03;;;2.70;;
19814;SDS011;10067;53.092;8.800;2023-06-14T10:57:25;9.18;;;2.90;;
19814;SDS011;10067;53.092;8.800;2023-06-14T10:59:51;4.85;;;3.00;;
19814;SDS011;10067;53.092;8.800;2023-06-14T11:02:26;6.40;;;3.10;;
19814;SDS011;10067;53.092;8.800;2023-06-14T11:04:53;9.82;;;2.70;;
19814;SDS011;10067;53.092;8.800;2023-06-14T11:07:26;5.50;;;2.90;;
19814;SDS011;10067;53.092;8.800;2023-06-14T11:10:04;6.50;;;2.95;;
19814;SDS011;10067;53.092;8.800;2023-06-14T11:12:33;8.43;;;3.10;;
19814;SDS011;10067;53.092;8.800;2023-06-14T11:15:00;6.28;;;2.88;;
19814;SDS011;10067;53.092;8.800;2023-06-14T11:17:29;6.50;;;3.47;;
19814;SDS011;10067;53.092;8.800;2023-06-14T11:20:07;4.68;;;2.85;;
19814;SDS011;10067;53.092;8.800;2023-06-14T11:22:38;4.97;;;3.40;;
19814;SDS011;10067;53.092;8.800;2023-06-14T11:25:07;8.85;;;3.30;;
19814;SDS011;10067;53.092;8.800;2023-06-14T11:27:34;8.57;;;3.00;;
19814;SDS011;10067;53.092;8.800;2023-06-14T11:30:00;5.05;;;2.88;;
19814;SDS011;10067;53.092;8.800;2023-06-14T11:32:28;7.53;;;2.83;;
19814;SDS011;10067;53.092;8.800;2023-06-14T11:34:57;4.15;;;2.67;;
19814;SDS011;10067;53.092;8.800;2023-06-14T11:37:24;4.93;;;2.72;;
19814;SDS011;10067;53.092;8.800;2023-06-14T11:39:51;6.47;;;2.83;;
19814;SDS011;10067;53.092;8.800;2023-06-14T11:42:17;8.82;;;3.13;;
19814;SDS011;10067;53.092;8.800;2023-06-14T11:44:45;16.08;;;3.60;;
19814;SDS011;10067;53.092;8.800;2023-06-14T11:47:11;6.45;;;2.67;;
19814;SDS011;10067;53.092;8.800;2023-06-14T11:49:39;7.15;;;3.05;;
19814;SDS011;10067;53.092;8.800;2023-06-14T11:52:07;7.55;;;3.13;;
19814;SDS011;10067;53.092;8.800;2023-06-14T11:54:33;7.45;;;2.95;;
19814;SDS011;10067;53.092;8.800;2023-06-14T11:56:59;6.78;;;2.83;;
19814;SDS011;10067;53.092;8.800;2023-06-14T11:59:26;7.70;;;3.08;;
19814;SDS011;10067;53.092;8.800;2023-06-14T12:01:53;4.95;;;2.92;;
19814;SDS011;10067;53.092;8.800;2023-06-14T12:04:23;4.70;;;3.03;;
19814;SDS011;10067;53.092;8.800;2023-06-14T12:06:51;6.85;;;2.80;;
19814;SDS011;10067;53.092;8.800;2023-06-14T12:09:18;9.50;;;2.90;;
19814;SDS011;10067;53.092;8.800;2023-06-14T12:11:45;9.85;;;2.85;;
19814;SDS011;10067;53.092;8.800;2023-06-14T12:14:11;5.53;;;2.92;;
19814;SDS011;10067;53.092;8.800;2023-06-14T12:16:38;4.93;;;2.75;;
19814;SDS011;10067;53.092;8.800;2023-06-14T12:19:08;7.20;;;3.08;;
19814;SDS011;10067;53.092;8.800;2023-06-14T12:21:36;11.40;;;2.95;;
19814;SDS011;10067;53.092;8.800;2023-06-14T12:24:05;7.38;;;3.40;;
19814;SDS011;10067;53.092;8.800;2023-06-14T12:26:32;6.30;;;3.10;;
19814;SDS011;10067;53.092;8.800;2023-06-14T12:28:58;4.88;;;3.00;;
19814;SDS011;10067;53.092;8.800;2023-06-14T12:31:25;9.35;;;3.30;;
19814;SDS011;10067;53.092;8.800;2023-06-14T12:33:51;4.82;;;3.42;;
19814;SDS011;10067;53.092;8.800;2023-06-14T12:36:18;6.10;;;3.80;;
19814;SDS011;10067;53.092;8.800;2023-06-14T12:38:45;6.35;;;3.22;;
19814;SDS011;10067;53.092;8.800;2023-06-14T12:41:13;4.28;;;3.15;;
19814;SDS011;10067;53.092;8.800;2023-06-14T12:43:40;4.82;;;3.17;;
19814;SDS011;10067;53.092;8.800;2023-06-14T12:46:07;5.10;;;3.42;;
19814;SDS011;10067;53.092;8.800;2023-06-14T12:48:33;5.18;;;3.28;;
19814;SDS011;10067;53.092;8.800;2023-06-14T12:51:00;6.32;;;3.47;;
19814;SDS011;10067;53.092;8.800;2023-06-14T12:53:26;4.22;;;2.78;;
19814;SDS011;10067;53.092;8.800;2023-06-14T12:55:52;5.97;;;3.22;;
19814;SDS011;10067;53.092;8.800;2023-06-14T12:58:20;7.63;;;3.03;;
19814;SDS011;10067;53.092;8.800;2023-06-14T13:00:48;6.90;;;3.10;;
19814;SDS011;10067;53.092;8.800;2023-06-14T13:03:15;6.72;;;3.22;;
19814;SDS011;10067;53.092;8.800;2023-06-14T13:05:41;5.68;;;3.88;;
19814;SDS011;10067;53.092;8.800;2023-06-14T13:08:08;5.60;;;3.10;;
19814;SDS011;10067;53.092;8.800;2023-06-14T13:10:34;9.35;;;3.45;;
19814;SDS011;10067;53.092;8.800;2023-06-14T13:13:01;4.82;;;3.30;;
19814;SDS011;10067;53.092;8.800;2023-06-14T13:15:28;7.47;;;3.30;;
19814;SDS011;10067;53.092;8.800;2023-06-14T13:17:55;5.65;;;3.30;;
19814;SDS011;10067;53.092;8.800;2023-06-14T13:20:21;5.90;;;3.10;;
19814;SDS011;10067;53.092;8.800;2023-06-14T13:22:48;3.72;;;2.78;;
19814;SDS011;10067;53.092;8.800;2023-06-14T13:25:14;5.95;;;3.60;;
19814;SDS011;10067;53.092;8.800;2023-06-14T13:27:40;8.13;;;2.92;;
19814;SDS011;10067;53.092;8.800;2023-06-14T13:30:07;8.65;;;3.28;;
19814;SDS011;10067;53.092;8.800;2023-06-14T13:32:36;5.35;;;3.15;;
19814;SDS011;10067;53.092;8.800;2023-06-14T13:35:03;6.15;;;2.97;;
19814;SDS011;10067;53.092;8.800;2023-06-14T13:37:29;7.68;;;2.90;;
19814;SDS011;10067;53.092;8.800;2023-06-14T13:39:56;3.22;;;2.88;;
19814;SDS011;10067;53.092;8.800;2023-06-14T13:42:22;7.68;;;2.95;;
19814;SDS011;10067;53.092;8.800;2023-06-14T13:44:49;3.92;;;2.90;;
19814;SDS011;10067;53.092;8.800;2023-06-14T13:47:16;5.93;;;3.15;;
19814;SDS011;10067;53.092;8.800;2023-06-14T13:49:44;8.05;;;2.75;;
19814;SDS011;10067;53.092;8.800;2023-06-14T13:52:10;5.18;;;3.33;;
19814;SDS011;10067;53.092;8.800;2023-06-14T13:54:38;6.30;;;2.95;;
19814;SDS011;10067;53.092;8.800;2023-06-14T13:57:05;7.65;;;3.17;;
19814;SDS011;10067;53.092;8.800;2023-06-14T13:59:31;8.73;;;3.42;;
19814;SDS011;10067;53.092;8.800;2023-06-14T14:01:58;7.35;;;3.38;;
19814;SDS011;10067;53.092;8.800;2023-06-14T14:04:24;8.80;;;3.38;;
19814;SDS011;10067;53.092;8.800;2023-06-14T14:06:52;5.18;;;3.40;;
19814;SDS011;10067;53.092;8.800;2023-06-14T14:09:19;9.02;;;3.75;;
19814;SDS011;10067;53.092;8.800;2023-06-14T14:11:45;7.15;;;3.35;;
19814;SDS011;10067;53.092;8.800;2023-06-14T14:14:13;6.18;;;3.65;;
19814;SDS011;10067;53.092;8.800;2023-06-14T14:16:40;8.50;;;3.08;;
19814;SDS011;10067;53.092;8.800;2023-06-14T14:19:07;8.63;;;3.30;;
19814;SDS011;10067;53.092;8.800;2023-06-14T14:21:33;6.45;;;3.47;;
19814;SDS011;10067;53.092;8.800;2023-06-14T14:24:01;6.93;;;3.33;;
19814;SDS011;10067;53.092;8.800;2023-06-14T14:26:28;8.18;;;3.55;;
19814;SDS011;10067;53.092;8.800;2023-06-14T14:28:54;5.65;;;3.55;;
19814;SDS011;10067;53.092;8.800;2023-06-14T14:31:21;5.38;;;3.22;;
19814;SDS011;10067;53.092;8.800;2023-06-14T14:33:48;11.65;;;3.55;;
19814;SDS011;10067;53.092;8.800;2023-06-14T14:36:14;7.65;;;3.90;;
19814;SDS011;10067;53.092;8.800;2023-06-14T14:38:41;5.93;;;3.65;;
19814;SDS011;10067;53.092;8.800;2023-06-14T14:41:08;7.82;;;3.45;;
19814;SDS011;10067;53.092;8.800;2023-06-14T14:43:35;6.70;;;3.72;;
19814;SDS011;10067;53.092;8.800;2023-06-14T14:46:02;6.88;;;3.58;;
19814;SDS011;10067;53.092;8.800;2023-06-14T14:48:28;5.35;;;4.00;;